Maxbass, North Dakota
Current Conditions -  °F | °C
As of 5:13 AM on Wednesday 26 Nov 2014 (Local Time) from KMIB Reporting Station
Light Snow Light Snow  
Wind Chill: -6°   Ceiling: 200
Heat Index:   Visibility: 2.5mi
Dew Point:   Wind: 6mph
Humidity: 85%   Direction: 20°NNE
Pressure: 30.29"   Gusts: NA
Location:  48.72°N, 101.14°W
Report Text: KMIB 261113Z AUTO 02005KT 2 1/2SM R11/3500FT -SN BR BKN002 OVC033 M15/M17 A3029 RMK AO2 VIS 2 1/2V5 VIS 1/2 RWY29
Loading
Personal Weather Stations






























Interactive Weather Map New forecast layout! Learn more

10-Day Weather Forecast

Advertisements
Track Severe Weather on mobile